Gore Bay Manitoulin Airport
CYZE : rendu visible

Aérodrome :











RETROUVEZ-NOUS SUR...

 
LOGIN :

S'inscrire | Disclaimer

   EN    FR    IT 

 









Légende :    VFR   VFR Marginal   IFR   IFR Intensif   IFR Très Intensif
Visi : 
Plafond : 
>= 8 km
>= 3000ft
5 à 8 km
1000 à 3000 ft
1500m à 5 km
500 à 1000 ft
800 à 1500m
200 à 500 ft
< 800m
< 200 ft
Symboles :   Orages  Brouillard  Fortes neiges  Fortes précipitations  Vent > 20 kt






- Altitude de l'aérodrome : 635 ft
- Code IATA : YZE


CYZE - Gore Bay Manitoulin

DERNIER METAR :
  • 150700Z AUTO 27018G25KT 9SM FEW015 SCT036 BKN048 OVC055 01/M01 A2994 RMK SLP151

METARs EXPIRÉS :
  • 150647Z AUTO 27016G23KT 9SM -RA -UP FEW011 SCT018 BKN038 OVC055 01/M01 A2994 RMK SLP151
  • 150632Z AUTO 27016G25KT 3SM -SN SCT009 BKN018 BKN025 OVC055 01/M00 A2994 RMK SLP151
  • 150625Z AUTO 27017G26KT 5SM -SN BKN009 BKN016 BKN025 OVC055 01/00 A2994 RMK SLP151
  • 150616Z AUTO 27019G24KT 4SM -SN SCT007 BKN011 BKN016 OVC027 01/00 A2994 RMK SLP148
  • 150526Z AUTO 25016G24KT 4SM -SN OVC017 M00/M02 A2994 RMK ICG INTMT SLP150
  • 150514Z AUTO 24015G25KT 4SM -SN -FZUP BKN017 OVC021 M00/M02 A2994 RMK ICG SLP151
  • 150511Z AUTO 25017G25KT 4SM -FZRA -SN OVC017 M00/M02 A2994 RMK ICG SLP151
  • 150506Z AUTO 25019G25KT 4SM -FZRA BR OVC017 M00/M02 A2994 RMK ICG INTMT SLP151
  • 150457Z AUTO 24016G27KT 4SM -SN OVC019 M00/M02 A2995 RMK ICG SLP152
  • 150429Z AUTO 25016G27KT 8SM -SN BKN021 OVC027 M00/M03 A2995 RMK SLP152

Prévision TAF périmée.



MET'MAP, la Météo Aéronautique d'un coup d'oeil ! - Copyright ORBIFLY Décembre 2007 - Disclaimer

ORBIFLY MET'MAP TEAM :

Programmation & Développement : Alexandra Zaïnal
Conception & Développement : Baudouin d'Aumeries
Co-Programmation & Développement : Marc-Olivier Méhu
Soutien technique & logistique : Manuel Goepfert

Contact : metmap@orbifly.com




SOURCES & CREDITS :

   NOAA       Earth
Advisory